METAR Data
IDs: Format: Raw Decoded Include TAF

Data at: 1557 UTC 03 Dec 2021

KAUS 031553Z 20006KT 7SM FEW005 OVC009 20/19 A3008 RMK AO2 SLP183 T02000189